Time;durP1;ratioP1;P1;durP2;ratioP2;P2;SDS_P1;SDS_P2;PMS_P1;PMS_P2;Temp;Humidity;BMP_temperature;BMP_pressure;BME280_temperature;BME280_humidity;BME280_pressure;Samples;Min_cycle;Max_cycle;Signal;HPM_P1;HPM_P2
2022/07/14 00:02:17;;;;;;;0.30;0.30;;;;;;;15.07;64.25;100176.81;5123466;28;20023;-70
2022/07/14 00:04:43;;;;;;;0.20;0.20;;;;;;;15.06;64.19;100173.38;5123319;28;20041;-70
2022/07/14 00:07:08;;;;;;;0.20;0.20;;;;;;;15.08;64.24;100179.38;5123451;28;20023;-69
2022/07/14 00:09:34;;;;;;;0.20;0.20;;;;;;;15.00;64.26;100176.16;5123479;28;20043;-69
2022/07/14 00:11:59;;;;;;;0.20;0.20;;;;;;;15.05;64.49;100170.81;5104930;28;20184;-70
2022/07/14 00:14:24;;;;;;;0.20;0.20;;;;;;;15.04;64.65;100162.09;5125297;28;20043;-70
2022/07/14 00:16:50;;;;;;;0.25;0.25;;;;;;;14.94;64.46;100164.13;5127255;28;20019;-70
2022/07/14 00:19:16;;;;;;;0.30;0.30;;;;;;;14.91;64.57;100171.22;5127367;28;20016;-70
2022/07/14 00:21:42;;;;;;;0.30;0.30;;;;;;;14.77;64.64;100146.31;5127068;28;20486;-69
2022/07/14 00:24:11;;;;;;;0.20;0.20;;;;;;;14.77;64.81;100148.94;5127218;28;20047;-70
2022/07/14 00:26:36;;;;;;;0.20;0.20;;;;;;;14.75;64.93;100155.97;5126982;28;20055;-70
2022/07/14 00:29:02;;;;;;;0.20;0.20;;;;;;;14.73;65.29;100156.00;5127306;28;20027;-70
2022/07/14 00:31:27;;;;;;;0.20;0.20;;;;;;;14.69;65.27;100161.38;5108201;28;20028;-70
2022/07/14 00:33:52;;;;;;;0.20;0.20;;;;;;;14.66;65.17;100161.47;5127025;28;20020;-70
2022/07/14 00:36:18;;;;;;;0.20;0.20;;;;;;;14.62;65.51;100161.56;5127214;28;20033;-69
2022/07/14 00:38:43;;;;;;;1.25;1.15;;;;;;;14.59;65.38;100151.19;5127122;28;20032;-70
2022/07/14 00:41:08;;;;;;;0.20;0.20;;;;;;;14.59;65.87;100153.81;5126879;28;20028;-70
2022/07/14 00:43:34;;;;;;;0.93;0.93;;;;;;;14.57;66.07;100158.22;5126986;28;20046;-69
2022/07/14 00:45:59;;;;;;;0.30;0.30;;;;;;;14.59;66.04;100160.78;5126539;28;20043;-69
2022/07/14 00:48:27;;;;;;;0.30;0.30;;;;;;;14.54;66.56;100162.66;5126729;28;20023;-69
2022/07/14 00:50:53;;;;;;;0.20;0.20;;;;;;;14.59;66.65;100166.00;5126615;28;20102;-68
2022/07/14 00:53:19;;;;;;;0.30;0.30;;;;;;;14.68;66.23;100144.84;5126632;28;20023;-69
2022/07/14 00:55:44;;;;;;;0.20;0.20;;;;;;;14.62;66.45;100140.66;5126505;28;20076;-69
2022/07/14 00:58:10;;;;;;;0.30;0.30;;;;;;;14.62;66.19;100147.63;5126661;28;20023;-69
2022/07/14 01:00:36;;;;;;;0.20;0.20;;;;;;;14.56;66.01;100135.63;5126195;28;20083;-69
2022/07/14 01:03:02;;;;;;;1.95;1.85;;;;;;;14.54;66.33;100147.00;5126168;28;20034;-69
2022/07/14 01:05:27;;;;;;;0.30;0.30;;;;;;;14.62;66.33;100145.88;5126172;28;20051;-69
2022/07/14 01:07:53;;;;;;;0.30;0.30;;;;;;;14.62;66.03;100147.63;5126259;28;20020;-68
2022/07/14 01:10:19;;;;;;;0.20;0.20;;;;;;;14.69;66.10;100140.47;5107859;28;20058;-69
2022/07/14 01:12:46;;;;;;;0.30;0.30;;;;;;;14.71;66.06;100134.28;5126559;28;20123;-69
2022/07/14 01:15:14;;;;;;;0.20;0.20;;;;;;;14.69;66.36;100130.03;5126179;28;20367;-69
2022/07/14 01:17:39;;;;;;;0.20;0.20;;;;;;;14.69;66.55;100130.03;5125958;28;20024;-70
2022/07/14 01:20:06;;;;;;;0.20;0.20;;;;;;;14.73;66.41;100129.88;5126332;28;20645;-69
2022/07/14 01:22:31;;;;;;;0.20;0.20;;;;;;;14.78;66.44;100144.56;5126024;28;20126;-70
2022/07/14 01:24:56;;;;;;;0.40;0.40;;;;;;;14.78;66.50;100124.50;5125298;28;20455;-69
2022/07/14 01:27:22;;;;;;;0.20;0.20;;;;;;;14.80;66.59;100119.28;5125196;28;20099;-70
2022/07/14 01:29:47;;;;;;;0.30;0.30;;;;;;;14.84;66.31;100128.75;5125922;28;20050;-69
2022/07/14 01:32:12;;;;;;;0.20;0.20;;;;;;;14.85;66.46;100127.84;5125608;28;20023;-70
2022/07/14 01:34:38;;;;;;;0.20;0.20;;;;;;;14.93;66.33;100114.53;5125821;28;20024;-70
2022/07/14 01:37:03;;;;;;;0.20;0.20;;;;;;;14.94;66.71;100121.44;5125732;28;20061;-69
2022/07/14 01:39:28;;;;;;;0.30;0.30;;;;;;;14.90;66.69;100115.47;5125791;28;20456;-70
2022/07/14 01:41:54;;;;;;;0.22;0.22;;;;;;;14.88;66.96;100117.28;5125677;28;20016;-71
2022/07/14 01:44:19;;;;;;;0.30;0.30;;;;;;;14.85;66.91;100115.63;5125918;28;20102;-70
2022/07/14 01:46:45;;;;;;;0.30;0.30;;;;;;;14.80;66.96;100117.53;5125371;28;20030;-70
2022/07/14 01:49:10;;;;;;;0.20;0.20;;;;;;;14.79;67.04;100122.75;5125386;28;20483;-70
2022/07/14 01:51:36;;;;;;;0.20;0.20;;;;;;;14.79;67.10;100117.53;5125354;28;20054;-70
2022/07/14 01:54:04;;;;;;;0.30;0.30;;;;;;;14.75;67.23;100120.25;5125274;28;20035;-70
2022/07/14 01:56:29;;;;;;;0.20;0.20;;;;;;;14.79;66.97;100120.16;5125523;28;20079;-70
2022/07/14 01:58:55;;;;;;;4.40;1.85;;;;;;;14.84;66.98;100106.06;5125495;28;20031;-70
2022/07/14 02:01:39;;;;;;;0.20;0.20;;;;;;;14.91;66.71;100104.13;5125206;28;20020;-69
2022/07/14 02:04:04;;;;;;;0.30;0.30;;;;;;;14.90;66.99;100098.94;5125651;28;20099;-70
2022/07/14 02:06:30;;;;;;;0.20;0.20;;;;;;;14.91;66.84;100095.41;5125244;28;20024;-70
2022/07/14 02:08:56;;;;;;;0.20;0.20;;;;;;;14.89;66.83;100084.16;5124812;28;20023;-69
2022/07/14 02:14:06;;;;;;;0.20;0.20;;;;;;;14.87;67.14;100095.50;5125103;28;20094;-70
2022/07/14 02:16:31;;;;;;;0.30;0.30;;;;;;;14.86;67.27;100096.41;5124436;28;20023;-69
2022/07/14 02:18:58;;;;;;;0.20;0.20;;;;;;;14.86;67.16;100092.94;5124632;28;20217;-70
2022/07/14 02:21:24;;;;;;;0.30;0.30;;;;;;;14.89;67.18;100099.84;5124909;28;20024;-69
2022/07/14 02:23:50;;;;;;;0.20;0.20;;;;;;;14.76;67.27;100094.94;5124810;28;20027;-68
2022/07/14 02:26:15;;;;;;;0.20;0.20;;;;;;;14.76;67.10;100084.50;5124825;28;20019;-69
2022/07/14 02:28:41;;;;;;;0.30;0.30;;;;;;;14.80;67.40;100096.63;5124806;28;20475;-69
2022/07/14 02:31:09;;;;;;;0.20;0.20;;;;;;;14.86;67.17;100075.50;5124667;28;20016;-70
2022/07/14 02:33:34;;;;;;;0.25;0.25;;;;;;;14.89;67.15;100095.47;5125175;28;20049;-69
2022/07/14 02:36:00;;;;;;;0.20;0.20;;;;;;;14.92;67.41;100078.84;5124598;28;20015;-70
2022/07/14 02:38:25;;;;;;;0.20;0.20;;;;;;;14.89;67.28;100095.47;5124417;28;20024;-69
2022/07/14 02:40:51;;;;;;;0.30;0.30;;;;;;;14.88;67.25;100083.31;5124725;28;20036;-69
2022/07/14 02:43:16;;;;;;;0.20;0.20;;;;;;;14.78;67.76;100077.47;5124403;28;20016;-69
2022/07/14 02:45:41;;;;;;;1.30;1.27;;;;;;;14.76;67.81;100084.50;5124210;28;20528;-69
2022/07/14 02:48:07;;;;;;;4.80;2.13;;;;;;;14.79;67.84;100081.81;5124334;28;20031;-70
2022/07/14 02:50:32;;;;;;;0.30;0.30;;;;;;;14.75;67.74;100075.81;5124350;28;20027;-69
2022/07/14 02:52:58;;;;;;;0.63;0.60;;;;;;;14.75;67.93;100054.06;5124561;28;20038;-69
2022/07/14 02:55:24;;;;;;;0.25;0.25;;;;;;;14.79;68.10;100060.91;5124545;28;20064;-70
2022/07/14 02:57:49;;;;;;;0.20;0.20;;;;;;;14.75;68.10;100061.91;5124271;28;20094;-69
2022/07/14 03:00:15;;;;;;;0.30;0.30;;;;;;;14.72;67.98;100067.22;5124185;28;20055;-69
2022/07/14 03:02:40;;;;;;;0.50;0.50;;;;;;;14.73;68.19;100053.25;5124188;28;20041;-69
2022/07/14 03:05:06;;;;;;;0.30;0.30;;;;;;;14.76;67.71;100063.59;5124583;28;20016;-69
2022/07/14 03:07:32;;;;;;;0.30;0.30;;;;;;;14.75;68.02;100061.91;5124149;28;20042;-69
2022/07/14 03:09:57;;;;;;;0.20;0.20;;;;;;;14.72;67.95;100059.38;5124220;28;20486;-69
2022/07/14 03:12:22;;;;;;;0.20;0.20;;;;;;;14.74;67.87;100057.59;5124077;28;20032;-69
2022/07/14 03:14:48;;;;;;;0.30;0.30;;;;;;;14.73;68.20;100068.91;5124236;28;20529;-69
2022/07/14 03:17:14;;;;;;;0.30;0.30;;;;;;;14.77;67.89;100075.78;5124066;28;20020;-69
2022/07/14 03:19:40;;;;;;;0.30;0.30;;;;;;;14.69;67.99;100057.72;5124060;28;20019;-69
2022/07/14 03:22:05;;;;;;;0.28;0.28;;;;;;;14.72;68.05;100057.63;5124016;28;20108;-69
2022/07/14 03:24:31;;;;;;;0.20;0.20;;;;;;;14.77;68.36;100062.72;5123979;28;20114;-69
2022/07/14 03:26:56;;;;;;;0.30;0.30;;;;;;;14.81;68.17;100056.50;5105228;28;20055;-69
2022/07/14 03:29:22;;;;;;;0.30;0.30;;;;;;;14.81;68.19;100068.75;5123757;28;20047;-70
2022/07/14 03:31:48;;;;;;;0.30;0.30;;;;;;;14.85;68.22;100057.28;5123665;28;20024;-69
2022/07/14 03:34:14;;;;;;;0.30;0.30;;;;;;;14.87;68.11;100061.53;5123871;28;20050;-69
2022/07/14 03:36:39;;;;;;;0.22;0.22;;;;;;;14.93;68.17;100049.19;5123902;28;20035;-71
2022/07/14 03:39:05;;;;;;;0.20;0.20;;;;;;;14.96;68.26;100064.75;5123704;28;20012;-69
2022/07/14 03:41:31;;;;;;;1.38;1.10;;;;;;;14.95;68.24;100050.00;5123755;28;20022;-69
2022/07/14 03:43:56;;;;;;;0.45;0.45;;;;;;;15.03;67.94;100053.19;5123796;28;20055;-70
2022/07/14 03:46:22;;;;;;;0.20;0.20;;;;;;;15.09;68.06;100047.78;5123441;28;20034;-69
2022/07/14 03:48:47;;;;;;;0.30;0.30;;;;;;;15.05;67.99;100040.94;5124764;28;20073;-69
2022/07/14 03:51:13;;;;;;;0.30;0.30;;;;;;;15.11;67.72;100051.19;5109403;28;20023;-69
2022/07/14 03:53:38;;;;;;;0.20;0.20;;;;;;;15.13;67.64;100048.50;5127878;28;20028;-69
2022/07/14 03:56:04;;;;;;;0.20;0.20;;;;;;;15.10;67.43;100052.09;5127808;28;20024;-69
2022/07/14 03:58:30;;;;;;;0.30;0.30;;;;;;;15.15;67.36;100045.84;5128281;28;20051;-69
2022/07/14 04:00:55;;;;;;;0.30;0.30;;;;;;;15.15;67.44;100051.06;5127554;28;20053;-69
2022/07/14 04:03:21;;;;;;;0.60;0.60;;;;;;;15.15;67.42;100046.72;5127756;28;20024;-69
2022/07/14 04:05:46;;;;;;;0.22;0.22;;;;;;;15.19;67.59;100044.88;5127791;28;20589;-69
2022/07/14 04:08:12;;;;;;;0.20;0.20;;;;;;;15.22;67.42;100050.00;5127603;28;20027;-69
2022/07/14 04:10:38;;;;;;;0.20;0.20;;;;;;;15.27;67.75;100041.97;5127907;28;20039;-69
2022/07/14 04:13:03;;;;;;;0.20;0.20;;;;;;;15.44;67.21;100038.78;5127585;28;20023;-69
2022/07/14 04:15:30;;;;;;;0.25;0.25;;;;;;;15.49;67.02;100040.31;5127503;28;20019;-69
2022/07/14 04:17:56;;;;;;;0.20;0.20;;;;;;;15.56;66.94;100038.34;5127701;28;20023;-69
2022/07/14 04:20:22;;;;;;;0.28;0.28;;;;;;;15.68;65.98;100031.84;5127392;28;20035;-70
2022/07/14 04:22:48;;;;;;;0.47;0.47;;;;;;;15.77;65.24;100035.88;5127257;28;20091;-69
2022/07/14 04:25:14;;;;;;;0.20;0.20;;;;;;;15.98;66.17;100038.66;5127518;28;20026;-69
2022/07/14 04:27:40;;;;;;;0.20;0.20;;;;;;;16.62;66.53;100028.38;5127323;28;20051;-69
2022/07/14 04:30:08;;;;;;;0.20;0.20;;;;;;;17.07;63.74;100021.31;5127094;28;20015;-68
2022/07/14 04:32:34;;;;;;;0.30;0.30;;;;;;;17.32;63.38;100027.31;5127302;28;20054;-69
2022/07/14 04:34:59;;;;;;;0.20;0.20;;;;;;;17.75;62.98;100026.38;5127227;28;20081;-68
2022/07/14 04:37:26;;;;;;;0.20;0.20;;;;;;;18.23;61.83;100029.47;5127311;28;20023;-69
2022/07/14 04:39:52;;;;;;;0.30;0.30;;;;;;;18.90;60.93;100028.06;5127173;28;20023;-68
2022/07/14 04:42:17;;;;;;;0.20;0.20;;;;;;;19.24;59.30;99992.19;5127042;28;20025;-68
2022/07/14 04:44:43;;;;;;;0.20;0.20;;;;;;;19.38;56.01;100019.56;5108738;28;20065;-68
2022/07/14 04:47:08;;;;;;;0.20;0.20;;;;;;;18.97;57.32;100024.22;5126891;28;20024;-69
2022/07/14 04:52:18;;;;;;;0.20;0.20;;;;;;;18.24;57.37;100035.59;5127009;28;20069;-69
2022/07/14 04:54:45;;;;;;;0.30;0.30;;;;;;;17.83;58.05;100022.47;5126788;28;20016;-69
2022/07/14 04:57:11;;;;;;;0.20;0.20;;;;;;;17.58;58.68;100041.09;5126811;28;20022;-69
2022/07/14 04:59:36;;;;;;;0.28;0.28;;;;;;;17.45;59.31;100032.88;5126639;28;20098;-69
2022/07/14 05:02:02;;;;;;;8.40;2.60;;;;;;;17.56;59.05;100032.41;5126354;28;20107;-69
2022/07/14 05:04:28;;;;;;;0.25;0.25;;;;;;;17.85;60.11;100035.53;5126506;28;20039;-69
2022/07/14 05:06:55;;;;;;;0.30;0.30;;;;;;;18.79;59.61;100032.09;5126653;28;20087;-69
2022/07/14 05:09:21;;;;;;;0.20;0.20;;;;;;;19.41;59.02;100019.44;5126215;28;20028;-69
2022/07/14 05:11:46;;;;;;;0.20;0.20;;;;;;;20.03;57.96;100023.25;5126637;28;20027;-68
2022/07/14 05:14:12;;;;;;;0.20;0.20;;;;;;;20.55;56.54;100039.72;5126485;28;20077;-69
2022/07/14 05:16:38;;;;;;;0.20;0.20;;;;;;;20.68;55.08;100026.72;5126150;28;20101;-69
2022/07/14 05:19:04;;;;;;;0.73;0.73;;;;;;;20.65;52.16;100034.78;5126617;28;20011;-69
2022/07/14 05:21:30;;;;;;;0.20;0.20;;;;;;;20.09;52.04;100037.88;5126257;28;20030;-68
2022/07/14 05:23:56;;;;;;;0.20;0.20;;;;;;;19.52;53.41;100047.84;5126174;28;20020;-69
2022/07/14 05:26:21;;;;;;;0.20;0.20;;;;;;;19.20;53.63;100033.59;5126397;28;20050;-68
2022/07/14 05:28:47;;;;;;;0.30;0.30;;;;;;;19.00;53.58;100041.59;5126085;28;20024;-68
2022/07/14 05:31:12;;;;;;;0.20;0.20;;;;;;;18.93;54.02;100039.28;5125928;28;20045;-69
2022/07/14 05:33:38;;;;;;;0.20;0.20;;;;;;;18.78;53.93;100045.31;5125796;28;20091;-69
2022/07/14 05:36:04;;;;;;;0.20;0.20;;;;;;;18.83;55.02;100048.56;5125830;28;20034;-69
2022/07/14 05:38:31;;;;;;;0.20;0.20;;;;;;;18.89;54.58;100043.00;5125925;28;20080;-68
2022/07/14 05:40:59;;;;;;;0.20;0.20;;;;;;;18.99;54.43;100043.41;5125964;28;20028;-68
2022/07/14 05:43:24;;;;;;;0.20;0.20;;;;;;;18.95;53.37;100042.69;5125722;28;20031;-69
2022/07/14 05:45:49;;;;;;;0.20;0.20;;;;;;;19.03;53.08;100029.16;5125571;28;20031;-69
2022/07/14 05:48:15;;;;;;;0.30;0.30;;;;;;;18.62;53.35;100045.19;5125893;28;20378;-68
2022/07/14 05:50:40;;;;;;;0.52;0.52;;;;;;;18.41;53.92;100061.06;5125683;28;20096;-69
2022/07/14 05:53:05;;;;;;;0.20;0.20;;;;;;;18.22;54.62;100054.03;5125624;28;20023;-68
2022/07/14 05:55:31;;;;;;;0.20;0.20;;;;;;;18.15;54.82;100055.22;5125591;28;20074;-69
2022/07/14 05:57:56;;;;;;;0.20;0.20;;;;;;;18.07;54.81;100058.19;5125428;28;20023;-69
2022/07/14 06:00:22;;;;;;;0.20;0.20;;;;;;;18.08;55.21;100052.03;5125509;28;20020;-69
2022/07/14 06:02:47;;;;;;;0.20;0.20;;;;;;;17.99;55.10;100053.28;5125215;28;20024;-68
2022/07/14 06:05:12;;;;;;;0.30;0.30;;;;;;;17.89;55.39;100055.47;5125215;28;20063;-68
2022/07/14 06:07:38;;;;;;;4.18;3.22;;;;;;;17.85;54.97;100056.53;5125311;28;20035;-68
2022/07/14 06:10:05;;;;;;;0.45;0.45;;;;;;;17.78;54.48;100034.09;5125130;28;20066;-68
2022/07/14 06:12:31;;;;;;;0.20;0.20;;;;;;;17.68;54.83;100052.88;5124701;28;20474;-68
2022/07/14 06:14:56;;;;;;;0.28;0.28;;;;;;;17.74;55.66;100049.13;5125291;28;20023;-68
2022/07/14 06:17:22;;;;;;;0.20;0.20;;;;;;;18.25;55.40;100043.38;5124962;28;20034;-68
2022/07/14 06:19:47;;;;;;;0.20;0.20;;;;;;;18.53;54.23;100042.06;5124999;28;20034;-68
2022/07/14 06:22:12;;;;;;;0.20;0.20;;;;;;;18.87;53.42;100051.88;5124994;28;20102;-68
2022/07/14 06:24:41;;;;;;;0.20;0.20;;;;;;;18.74;52.12;100047.22;5124934;28;20055;-68
2022/07/14 06:27:06;;;;;;;0.20;0.20;;;;;;;18.71;51.70;100034.22;5124780;28;20058;-67
2022/07/14 06:29:32;;;;;;;0.20;0.20;;;;;;;18.59;51.53;100056.72;5124646;28;20020;-68
2022/07/14 06:31:57;;;;;;;0.30;0.30;;;;;;;18.41;52.26;100050.56;5124543;28;20020;-68
2022/07/14 06:34:23;;;;;;;0.20;0.20;;;;;;;18.64;52.33;100052.06;5124800;28;20023;-66
2022/07/14 06:36:48;;;;;;;0.20;0.20;;;;;;;19.39;51.94;100045.81;5124941;28;20376;-73
2022/07/14 06:39:14;;;;;;;0.20;0.20;;;;;;;20.23;51.26;100034.47;5124641;28;20081;-72
2022/07/14 06:41:40;;;;;;;0.52;0.52;;;;;;;20.68;48.34;100040.75;5124499;28;20028;-72
2022/07/14 06:44:06;;;;;;;0.20;0.20;;;;;;;20.85;48.09;100038.06;5124653;28;20073;-73
2022/07/14 06:46:32;;;;;;;0.20;0.20;;;;;;;21.23;47.02;100032.34;5124434;28;20020;-73
2022/07/14 06:48:58;;;;;;;0.20;0.20;;;;;;;21.32;45.69;100027.47;5124545;28;20111;-75
2022/07/14 06:51:24;;;;;;;0.20;0.20;;;;;;;21.38;45.65;100035.03;5124729;28;20015;-75
2022/07/14 06:53:49;;;;;;;0.20;0.20;;;;;;;21.73;45.11;100041.75;5124574;28;20020;-75
2022/07/14 06:56:14;;;;;;;0.20;0.20;;;;;;;21.89;45.15;100031.09;5124660;28;20023;-75
2022/07/14 06:58:40;;;;;;;0.20;0.20;;;;;;;22.46;44.67;100028.47;5124387;28;20030;-75
2022/07/14 07:01:05;;;;;;;0.30;0.30;;;;;;;22.33;43.64;100034.56;5124123;28;20058;-74
2022/07/14 07:03:30;;;;;;;0.20;0.20;;;;;;;21.91;43.89;100032.72;5124298;28;20031;-74
2022/07/14 07:08:40;;;;;;;0.15;0.15;;;;;;;22.28;43.51;100036.63;5124213;28;20085;-74
2022/07/14 07:11:05;;;;;;;0.20;0.20;;;;;;;21.84;43.74;100057.00;5124404;28;20027;-73
2022/07/14 07:13:30;;;;;;;0.20;0.20;;;;;;;21.58;44.30;100048.81;5123897;28;20023;-73
2022/07/14 07:15:56;;;;;;;0.20;0.20;;;;;;;21.60;44.94;100031.09;5123853;28;20016;-76
2022/07/14 07:18:21;;;;;;;0.20;0.20;;;;;;;21.88;44.00;100038.22;5124337;28;20156;-74
2022/07/14 07:20:47;;;;;;;0.20;0.20;;;;;;;21.86;43.85;100050.66;5123925;28;20042;-73
2022/07/14 07:23:12;;;;;;;0.20;0.20;;;;;;;21.89;44.29;100046.97;5122884;28;20432;-72
2022/07/14 07:25:38;;;;;;;0.20;0.20;;;;;;;22.40;44.23;100037.63;5105398;28;20103;-72
2022/07/14 07:28:03;;;;;;;0.20;0.20;;;;;;;23.02;42.86;100033.63;5123526;28;20113;-73
2022/07/14 07:30:29;;;;;;;0.20;0.20;;;;;;;23.21;41.51;100024.44;5123640;28;20015;-68
2022/07/14 07:32:55;;;;;;;2.47;1.30;;;;;;;23.38;40.99;100030.38;5124112;28;20045;-70
2022/07/14 07:35:21;;;;;;;0.13;0.13;;;;;;;23.69;41.02;100024.78;5123890;28;20023;-68
2022/07/14 07:37:47;;;;;;;0.20;0.20;;;;;;;23.86;39.32;100037.72;5105469;28;20056;-76
2022/07/14 07:40:13;;;;;;;0.43;0.43;;;;;;;23.91;39.74;100029.44;5123977;28;20047;-76
2022/07/14 07:42:38;;;;;;;0.10;0.10;;;;;;;24.45;40.22;100015.91;5105207;28;20110;-73
2022/07/14 07:45:04;;;;;;;0.10;0.10;;;;;;;24.85;38.20;100036.00;5105497;28;20020;-76
2022/07/14 07:47:30;;;;;;;0.10;0.10;;;;;;;25.16;35.71;100022.25;5123322;28;20145;-69
2022/07/14 07:49:55;;;;;;;0.10;0.10;;;;;;;24.95;36.65;100021.09;5123673;28;20024;-69
2022/07/14 07:52:21;;;;;;;0.10;0.10;;;;;;;24.82;36.27;100015.00;5123528;28;20429;-69
2022/07/14 07:54:47;;;;;;;0.20;0.20;;;;;;;24.92;36.63;100015.19;5123824;28;20030;-70
2022/07/14 07:57:13;;;;;;;0.10;0.10;;;;;;;25.32;35.13;100011.28;5123650;28;20084;-66
2022/07/14 07:59:39;;;;;;;0.20;0.20;;;;;;;25.61;34.17;100021.44;5123527;28;20047;-67
2022/07/14 08:02:05;;;;;;;0.10;0.10;;;;;;;25.34;34.00;100014.66;5123263;28;20023;-68
2022/07/14 08:04:32;;;;;;;0.10;0.10;;;;;;;25.33;34.46;99997.03;5123361;28;20024;-68
2022/07/14 08:06:57;;;;;;;0.10;0.10;;;;;;;25.41;33.88;99968.06;5123589;28;20079;-72
2022/07/14 08:09:23;;;;;;;0.10;0.10;;;;;;;24.83;34.28;100000.75;5123442;28;20048;-72
2022/07/14 08:11:48;;;;;;;0.73;0.73;;;;;;;24.77;34.65;100002.06;5105045;28;20027;-79
2022/07/14 08:16:58;;;;;;;0.10;0.10;;;;;;;24.34;34.75;100008.75;5123654;28;20061;-68
2022/07/14 08:19:23;;;;;;;0.10;0.10;;;;;;;24.25;35.09;100013.75;5123732;28;20046;-71
2022/07/14 08:21:49;;;;;;;0.20;0.20;;;;;;;24.33;34.58;100013.19;5123390;28;20018;-72
2022/07/14 08:24:15;;;;;;;0.22;0.22;;;;;;;24.33;34.09;99993.81;5105084;28;20087;-71
2022/07/14 08:26:40;;;;;;;0.10;0.10;;;;;;;24.47;34.31;100017.47;5123317;28;20186;-73
2022/07/14 08:29:07;;;;;;;0.17;0.17;;;;;;;24.61;34.37;99999.72;5123286;28;20115;-74
2022/07/14 08:31:32;;;;;;;0.10;0.10;;;;;;;24.87;33.94;100031.44;5123090;28;20058;-72
2022/07/14 08:33:58;;;;;;;0.10;0.10;;;;;;;24.50;33.93;100025.25;5123184;28;20459;-71
2022/07/14 08:36:23;;;;;;;0.10;0.10;;;;;;;24.59;32.93;100020.19;5126513;28;20019;-72
2022/07/14 08:38:49;;;;;;;0.35;0.35;;;;;;;24.25;34.23;100018.22;5108630;28;20026;-73
2022/07/14 08:41:14;;;;;;;0.22;0.22;;;;;;;24.38;33.77;100034.94;5127362;28;20157;-72
2022/07/14 08:43:40;;;;;;;0.20;0.20;;;;;;;24.83;33.55;100032.59;5126819;28;20019;-73
2022/07/14 08:46:05;;;;;;;0.10;0.10;;;;;;;24.90;32.82;100022.41;5126546;28;20046;-72
2022/07/14 08:48:33;;;;;;;0.10;0.10;;;;;;;24.60;33.75;100022.75;5126766;28;20077;-73
2022/07/14 08:50:59;;;;;;;0.10;0.10;;;;;;;24.08;34.38;100032.66;5126825;28;20028;-71
2022/07/14 08:53:27;;;;;;;0.10;0.10;;;;;;;23.50;35.50;100020.75;5126642;28;20058;-71
2022/07/14 08:55:53;;;;;;;0.20;0.20;;;;;;;22.70;36.70;100030.50;5126671;28;20031;-71
2022/07/14 08:58:18;;;;;;;0.20;0.20;;;;;;;22.28;37.17;100034.81;5126673;28;20023;-71
2022/07/14 09:00:44;;;;;;;0.20;0.20;;;;;;;22.13;37.98;100038.44;5126659;28;20027;-71
2022/07/14 09:03:10;;;;;;;0.10;0.10;;;;;;;22.71;37.95;100027.75;5126458;28;20298;-70
2022/07/14 09:05:41;;;;;;;1.05;0.95;;;;;;;22.62;36.98;100033.66;5126558;28;20027;-70
2022/07/14 09:08:06;;;;;;;0.20;0.20;;;;;;;22.74;37.20;100043.41;5126591;28;20019;-71
2022/07/14 09:10:32;;;;;;;0.10;0.10;;;;;;;22.46;37.28;100036.41;5126297;28;20030;-71
2022/07/14 09:13:20;;;;;;;0.20;0.20;;;;;;;22.33;38.16;100031.91;5126294;28;20037;-71
2022/07/14 09:15:49;;;;;;;0.20;0.20;;;;;;;23.31;37.50;100024.66;5126457;28;20027;-70
2022/07/14 09:18:25;;;;;;;0.20;0.20;;;;;;;23.15;36.37;100033.66;5126302;28;20046;-70
2022/07/14 09:20:52;;;;;;;0.20;0.20;;;;;;;22.34;37.70;100030.09;5126145;28;20038;-70
2022/07/14 09:23:27;;;;;;;0.10;0.10;;;;;;;21.58;39.16;100032.97;5126133;28;20028;-70
2022/07/14 09:26:15;;;;;;;0.10;0.10;;;;;;;21.15;40.37;100027.53;5126175;28;20030;-71
2022/07/14 09:28:42;;;;;;;5.25;1.10;;;;;;;20.63;41.30;100031.38;5125994;28;20069;-70
2022/07/14 09:31:28;;;;;;;0.38;0.38;;;;;;;20.07;42.90;100030.03;5126047;28;20043;-70
2022/07/14 09:33:58;;;;;;;0.50;0.50;;;;;;;19.75;43.69;100030.81;5125901;28;20019;-73
2022/07/14 09:36:28;;;;;;;0.20;0.20;;;;;;;19.37;44.72;100031.91;5125884;28;20467;-75
2022/07/14 09:39:15;;;;;;;0.20;0.20;;;;;;;19.13;45.41;100034.84;5125905;28;20016;-73
2022/07/14 09:41:54;;;;;;;6.95;2.65;;;;;;;18.90;46.00;100033.31;5123994;28;20134;-72
2022/07/14 09:44:20;;;;;;;0.20;0.20;;;;;;;18.64;46.46;100044.19;5124055;28;20267;-73
2022/07/14 09:46:54;;;;;;;0.20;0.20;;;;;;;18.53;46.57;100051.75;5123978;28;20019;-73
2022/07/14 09:49:23;;;;;;;0.20;0.20;;;;;;;18.26;47.07;100046.88;5105966;28;20047;-73
2022/07/14 09:52:00;;;;;;;0.20;0.20;;;;;;;18.27;47.16;100048.56;5125565;28;20628;-71
2022/07/14 09:54:43;;;;;;;0.20;0.20;;;;;;;18.59;46.87;100040.94;5125334;28;20030;-72
2022/07/14 09:57:20;;;;;;;0.20;0.20;;;;;;;18.48;47.09;100040.59;5125472;28;20047;-72
2022/07/14 09:59:48;;;;;;;0.30;0.30;;;;;;;18.45;46.63;100044.25;5125232;28;20041;-72
2022/07/14 10:02:31;;;;;;;0.20;0.20;;;;;;;18.25;47.48;100037.28;5125176;28;20024;-73
2022/07/14 10:05:01;;;;;;;0.20;0.20;;;;;;;18.06;47.38;100033.72;5125492;28;20069;-73
2022/07/14 10:07:28;;;;;;;0.20;0.20;;;;;;;17.98;47.95;100037.59;5125522;28;20022;-73
2022/07/14 10:10:04;;;;;;;10.95;3.45;;;;;;;18.06;48.21;100044.22;5125465;28;20070;-72
2022/07/14 10:12:30;;;;;;;0.20;0.20;;;;;;;18.36;48.05;100044.66;5125307;28;20053;-73
2022/07/14 10:15:02;;;;;;;0.22;0.22;;;;;;;18.46;47.51;100030.16;5125258;28;20024;-75
2022/07/14 10:17:34;;;;;;;0.20;0.20;;;;;;;18.45;47.58;100033.72;5124987;28;20031;-73
2022/07/14 10:20:00;;;;;;;;;;;;;;;18.66;47.19;100028.34;5125589;28;20144;-73
2022/07/14 10:22:27;;;;;;;0.20;0.20;;;;;;;18.46;47.65;100030.16;5106550;28;20367;-74
2022/07/14 10:24:52;;;;;;;0.20;0.20;;;;;;;18.38;47.88;100033.16;5124993;28;20072;-73
2022/07/14 10:27:18;;;;;;;0.20;0.20;;;;;;;18.48;47.71;100030.09;5124659;28;20040;-73
2022/07/14 10:29:50;;;;;;;0.75;0.75;;;;;;;18.42;47.64;100028.59;5124652;28;20471;-74
2022/07/14 10:32:35;;;;;;;0.20;0.20;;;;;;;18.39;48.37;100031.38;5124601;28;20019;-76
2022/07/14 10:35:24;;;;;;;1.55;1.45;;;;;;;18.11;50.11;100020.38;5124589;28;20084;-74
2022/07/14 10:37:51;;;;;;;1.55;1.45;;;;;;;17.90;50.86;100032.69;5124667;28;20028;-72
2022/07/14 10:40:47;;;;;;;0.20;0.20;;;;;;;17.43;51.99;100029.47;5124604;28;20030;-75
2022/07/14 10:43:16;;;;;;;0.20;0.20;;;;;;;17.05;52.63;100017.91;5124703;28;20076;-75
2022/07/14 10:45:49;;;;;;;0.20;0.20;;;;;;;17.01;54.02;100020.72;5124245;28;20027;-73
2022/07/14 10:48:29;;;;;;;0.20;0.20;;;;;;;17.16;53.16;100020.09;5124638;28;20024;-75
2022/07/14 10:51:16;;;;;;;0.20;0.20;;;;;;;17.20;53.53;100012.97;5124490;28;20031;-73
2022/07/14 10:54:16;;;;;;;0.20;0.20;;;;;;;17.23;53.84;100012.84;5105807;28;20057;-74
2022/07/14 10:56:44;;;;;;;0.20;0.20;;;;;;;17.11;53.55;100023.84;5124534;28;20083;-73
2022/07/14 10:59:24;;;;;;;0.20;0.20;;;;;;;16.77;56.06;100018.19;5124023;28;20030;-74
2022/07/14 11:02:14;;;;;;;1.38;1.38;;;;;;;16.73;56.52;100020.94;5123840;28;20015;-74
2022/07/14 11:05:04;;;;;;;0.20;0.20;;;;;;;16.77;56.38;100021.69;5124212;28;20030;-75
2022/07/14 11:08:07;;;;;;;0.30;0.30;;;;;;;16.89;56.80;100015.06;5124336;28;20029;-74
2022/07/14 11:10:32;;;;;;;0.20;0.20;;;;;;;17.03;56.30;100011.84;5124066;28;20024;-75
2022/07/14 11:13:06;;;;;;;0.30;0.30;;;;;;;17.04;55.17;100021.47;5123992;28;20425;-75
2022/07/14 11:15:58;;;;;;;0.20;0.20;;;;;;;17.08;54.94;100024.81;5123889;28;20020;-74
2022/07/14 11:18:24;;;;;;;0.30;0.30;;;;;;;17.15;55.03;100020.16;5123902;28;20023;-73
2022/07/14 11:20:56;;;;;;;0.20;0.20;;;;;;;17.18;54.85;100014.78;5124028;28;20425;-74
2022/07/14 11:23:24;;;;;;;0.20;0.20;;;;;;;17.48;54.28;100010.94;5123852;28;20023;-73
2022/07/14 11:25:52;;;;;;;0.20;0.20;;;;;;;17.68;54.03;100010.03;5124089;28;20070;-73
2022/07/14 11:28:49;;;;;;;0.25;0.25;;;;;;;17.77;53.35;100012.25;5124000;28;20043;-75
2022/07/14 11:31:22;;;;;;;0.20;0.20;;;;;;;17.87;53.19;99975.94;5123734;28;20107;-74
2022/07/14 11:36:36;;;;;;;0.28;0.28;;;;;;;17.99;51.57;99990.25;5123936;28;20526;-76
2022/07/14 11:39:16;;;;;;;0.77;0.77;;;;;;;17.95;51.88;99993.94;5123622;28;20063;-75
2022/07/14 11:41:50;;;;;;;0.20;0.20;;;;;;;17.87;52.51;99991.69;5124048;28;20020;-75
2022/07/14 11:44:35;;;;;;;4.60;2.05;;;;;;;17.87;52.14;99994.31;5124242;28;20028;-73